Time;durP1;ratioP1;P1;durP2;ratioP2;P2;SDS_P1;SDS_P2;PMS_P1;PMS_P2;Temp;Humidity;BMP_temperature;BMP_pressure;BME280_temperature;BME280_humidity;BME280_pressure;Samples;Min_cycle;Max_cycle;Signal;HPM_P1;HPM_P2
2024/03/30 00:00:13;;;;;;;25.95;18.17;;;;;;;8.66;100.00;98626.19;5105550;28;20047;-72
2024/03/30 00:02:41;;;;;;;25.83;17.92;;;;;;;8.68;100.00;98628.72;5090046;28;20683;-72
2024/03/30 00:05:08;;;;;;;23.13;16.65;;;;;;;8.67;100.00;98625.25;5064124;28;20070;-73
2024/03/30 00:07:40;;;;;;;27.38;18.70;;;;;;;8.67;100.00;98625.25;5104592;28;20127;-73
2024/03/30 00:10:06;;;;;;;26.80;18.55;;;;;;;8.65;100.00;98621.88;5073093;28;20075;-74
2024/03/30 00:12:33;;;;;;;25.40;18.00;;;;;;;8.63;100.00;98622.94;5104746;28;20043;-73
2024/03/30 00:15:00;;;;;;;25.80;17.80;;;;;;;8.62;100.00;98615.97;5069340;28;20093;-72
2024/03/30 00:17:29;;;;;;;26.90;18.10;;;;;;;8.59;100.00;98611.72;5075418;27;20062;-72
2024/03/30 00:19:57;;;;;;;23.67;17.50;;;;;;;8.49;100.00;98604.53;5107568;27;20045;-73
2024/03/30 00:22:24;;;;;;;22.33;16.55;;;;;;;8.59;100.00;98613.53;5069307;27;20040;-72
2024/03/30 00:24:51;;;;;;;23.25;16.75;;;;;;;8.51;100.00;98605.25;5094574;27;20062;-72
2024/03/30 00:27:18;;;;;;;21.20;15.45;;;;;;;8.56;100.00;98613.72;5073369;27;20502;-72
2024/03/30 00:29:45;;;;;;;22.65;16.60;;;;;;;8.55;100.00;98609.38;5092326;27;20073;-72
2024/03/30 00:32:13;;;;;;;23.33;17.60;;;;;;;8.55;100.00;98599.69;5085634;27;20134;-74
2024/03/30 00:34:39;;;;;;;24.65;17.05;;;;;;;8.58;100.00;98599.47;5111176;27;20572;-73
2024/03/30 00:37:07;;;;;;;25.02;16.63;;;;;;;8.55;100.00;98591.78;5091991;27;20039;-72
2024/03/30 00:39:33;;;;;;;22.10;15.60;;;;;;;8.13;100.00;98520.78;5110423;27;20409;-72
2024/03/30 00:42:00;;;;;;;21.88;14.85;;;;;;;8.50;100.00;98591.22;5105099;27;20070;-73
2024/03/30 00:44:26;;;;;;;23.15;16.13;;;;;;;8.42;100.00;98575.94;5108172;27;20070;-73
2024/03/30 00:46:53;;;;;;;20.80;15.45;;;;;;;8.34;100.00;98557.13;5092529;27;20035;-73
2024/03/30 00:49:20;;;;;;;20.85;15.07;;;;;;;8.49;100.00;98580.81;5107842;27;20063;-73
2024/03/30 00:51:48;;;;;;;21.92;14.60;;;;;;;8.50;100.00;98585.94;5106245;27;20063;-73
2024/03/30 00:54:17;;;;;;;20.00;14.13;;;;;;;8.41;100.00;98581.31;5088749;27;20105;-73
2024/03/30 00:56:44;;;;;;;22.42;15.20;;;;;;;8.52;100.00;98596.41;5105873;27;20062;-73
2024/03/30 00:59:11;;;;;;;24.13;15.98;;;;;;;8.42;100.00;98567.16;5098036;27;20059;-73
2024/03/30 01:01:39;;;;;;;21.25;15.73;;;;;;;8.59;100.00;98590.63;5076288;27;20205;-73
2024/03/30 01:04:07;;;;;;;21.40;14.75;;;;;;;8.59;100.00;98590.63;5106852;27;20039;-72
2024/03/30 01:06:34;;;;;;;21.23;15.00;;;;;;;8.60;100.00;98588.84;5114604;27;20046;-74
2024/03/30 01:09:01;;;;;;;20.17;14.60;;;;;;;8.59;100.00;98585.34;5095623;27;20050;-74
2024/03/30 01:11:32;;;;;;;20.67;14.80;;;;;;;8.59;100.00;98584.50;5112694;27;20038;-74
2024/03/30 01:13:59;;;;;;;21.25;15.38;;;;;;;8.08;100.00;98495.56;5106407;27;20516;-74
2024/03/30 01:16:27;;;;;;;21.55;15.40;;;;;;;8.57;100.00;98576.69;5111899;27;20123;-73
2024/03/30 01:18:54;;;;;;;20.30;14.65;;;;;;;8.55;100.00;98573.31;5076765;28;20039;-73
2024/03/30 01:21:21;;;;;;;21.25;15.20;;;;;;;8.55;100.00;98573.31;5089656;28;20130;-73
2024/03/30 01:23:48;;;;;;;22.02;14.85;;;;;;;8.56;100.00;98567.06;5084270;28;20054;-73
2024/03/30 01:26:24;;;;;;;20.65;14.82;;;;;;;8.55;100.00;98568.03;5070607;28;20049;-73
2024/03/30 01:28:53;;;;;;;20.02;14.77;;;;;;;8.49;100.00;98554.44;5106646;28;20047;-72
2024/03/30 01:31:21;;;;;;;19.90;14.23;;;;;;;8.55;100.00;98561.91;5070517;28;20552;-73
2024/03/30 01:33:48;;;;;;;19.27;14.25;;;;;;;8.53;100.00;98559.38;5083318;28;20036;-72
2024/03/30 01:36:16;;;;;;;20.52;13.93;;;;;;;8.52;100.00;98555.03;5087811;28;20131;-73
2024/03/30 01:38:42;;;;;;;20.70;13.65;;;;;;;8.52;100.00;98559.47;5089311;28;20075;-73
2024/03/30 01:41:09;;;;;;;19.77;13.85;;;;;;;8.23;100.00;98524.47;5093009;28;20066;-73
2024/03/30 01:43:36;;;;;;;21.33;14.15;;;;;;;8.39;100.00;98552.38;5096770;28;20570;-74
2024/03/30 01:46:08;;;;;;;21.17;13.75;;;;;;;8.47;100.00;98575.63;5089392;28;20063;-73
2024/03/30 01:48:34;;;;;;;18.13;13.05;;;;;;;8.45;100.00;98566.97;5087706;28;20071;-73
2024/03/30 01:51:01;;;;;;;18.23;13.10;;;;;;;8.44;100.00;98562.63;5088640;28;20078;-73
2024/03/30 01:53:29;;;;;;;17.15;13.48;;;;;;;8.44;100.00;98562.63;5068893;28;20055;-73
2024/03/30 01:55:56;;;;;;;19.40;12.82;;;;;;;8.25;100.00;98528.72;5082330;28;20477;-72
2024/03/30 01:58:28;;;;;;;16.67;12.02;;;;;;;8.22;100.00;98522.78;5102933;28;20063;-73
2024/03/30 02:00:56;;;;;;;20.42;13.90;;;;;;;8.45;100.00;98561.69;5081987;28;20079;-73
2024/03/30 02:03:24;;;;;;;20.60;13.20;;;;;;;8.47;100.00;98561.59;5065588;28;20046;-74
2024/03/30 02:05:53;;;;;;;18.48;13.35;;;;;;;8.14;100.00;98510.13;5068465;28;20542;-73
2024/03/30 02:08:22;;;;;;;18.08;12.90;;;;;;;8.42;100.00;98559.25;5071817;28;20047;-72
2024/03/30 02:10:49;;;;;;;19.77;13.63;;;;;;;8.40;100.00;98559.34;5089058;28;20533;-71
2024/03/30 02:13:15;;;;;;;21.90;14.45;;;;;;;8.36;100.00;98555.22;5100169;28;20127;-73
2024/03/30 02:15:42;;;;;;;23.02;15.70;;;;;;;8.36;100.00;98557.03;5089223;28;20036;-72
2024/03/30 02:18:10;;;;;;;21.77;14.52;;;;;;;8.35;100.00;98561.44;5073009;28;20035;-72
2024/03/30 02:20:38;;;;;;;21.48;14.80;;;;;;;8.33;100.00;98554.59;5087539;28;20066;-72
2024/03/30 02:23:04;;;;;;;25.63;16.85;;;;;;;8.31;100.00;98559.09;5095630;28;20048;-73
2024/03/30 02:25:33;;;;;;;25.77;16.80;;;;;;;8.28;100.00;98549.59;5087805;28;20089;-73
2024/03/30 02:27:59;;;;;;;25.42;16.05;;;;;;;8.27;100.00;98552.34;5086666;28;20130;-73
2024/03/30 02:30:29;;;;;;;23.92;16.45;;;;;;;8.24;100.00;98549.91;5089277;28;20058;-73
2024/03/30 02:32:56;;;;;;;24.83;16.60;;;;;;;8.15;100.00;98535.56;5065387;28;20043;-74
2024/03/30 02:35:23;;;;;;;29.70;18.45;;;;;;;8.22;100.00;98543.88;5088476;28;20445;-73
2024/03/30 02:37:52;;;;;;;24.80;17.25;;;;;;;8.22;100.00;98550.00;5084540;28;20459;-73
2024/03/30 02:40:22;;;;;;;26.48;17.65;;;;;;;8.22;100.00;98549.16;5076862;28;20376;-73
2024/03/30 02:42:50;;;;;;;28.52;18.08;;;;;;;8.21;100.00;98550.09;5105940;28;20036;-73
2024/03/30 02:45:18;;;;;;;28.67;19.17;;;;;;;8.20;100.00;98548.41;5097343;27;20524;-72
2024/03/30 02:47:46;;;;;;;30.38;18.85;;;;;;;8.19;100.00;98544.91;5089312;28;20090;-73
2024/03/30 02:50:13;;;;;;;29.45;18.75;;;;;;;8.18;100.00;98543.25;5085780;28;20509;-73
2024/03/30 02:52:39;;;;;;;29.05;19.35;;;;;;;8.17;100.00;98544.22;5085412;28;20074;-73
2024/03/30 02:55:06;;;;;;;31.65;19.08;;;;;;;8.15;100.00;98554.00;5090768;28;20067;-74
2024/03/30 02:57:33;;;;;;;27.88;18.27;;;;;;;8.13;100.00;98545.34;5107376;28;20512;-72
2024/03/30 03:00:02;;;;;;;31.42;19.27;;;;;;;7.93;100.00;98512.41;5082344;27;20628;-73
2024/03/30 03:02:29;;;;;;;30.25;19.30;;;;;;;8.10;100.00;98551.66;5102865;28;20047;-73
2024/03/30 03:04:56;;;;;;;27.67;18.67;;;;;;;8.11;100.00;98544.59;5104326;28;20055;-74
2024/03/30 03:07:22;;;;;;;32.53;19.20;;;;;;;8.10;100.00;98550.81;5076440;28;20063;-73
2024/03/30 03:09:52;;;;;;;27.67;18.60;;;;;;;7.94;100.00;98519.34;5092196;28;20802;-73
2024/03/30 03:12:17;;;;;;;32.58;20.00;;;;;;;8.10;100.00;98541.13;5088653;28;20078;-73
2024/03/30 03:14:47;;;;;;;34.65;21.25;;;;;;;8.08;100.00;98537.75;5103400;28;20047;-74
2024/03/30 03:17:18;;;;;;;29.52;18.58;;;;;;;8.08;100.00;98535.09;5086640;28;20139;-73
2024/03/30 03:19:45;;;;;;;33.00;20.25;;;;;;;8.06;100.00;98551.97;5091763;28;20063;-74
2024/03/30 03:22:11;;;;;;;28.25;19.02;;;;;;;8.06;100.00;98557.22;5073061;28;20048;-74
2024/03/30 03:24:40;;;;;;;31.77;19.50;;;;;;;8.06;100.00;98544.91;5088044;28;20051;-74
2024/03/30 03:27:06;;;;;;;30.42;18.20;;;;;;;7.96;100.00;98503.44;5070768;28;20093;-73
2024/03/30 03:29:33;;;;;;;28.95;18.10;;;;;;;8.09;100.00;98526.25;5093024;28;20075;-73
2024/03/30 03:31:59;;;;;;;31.55;17.58;;;;;;;8.08;100.00;98521.91;5049414;28;20055;-73
2024/03/30 03:34:30;;;;;;;28.80;18.73;;;;;;;8.08;100.00;98524.56;5085686;28;20065;-74
2024/03/30 03:36:55;;;;;;;25.38;17.27;;;;;;;7.98;100.00;98506.81;5076300;28;20723;-73
2024/03/30 03:39:23;;;;;;;28.02;17.92;;;;;;;7.96;100.00;98511.34;5072383;28;20047;-74
2024/03/30 03:41:49;;;;;;;31.95;19.58;;;;;;;8.00;100.00;98511.06;5106982;28;20073;-73
2024/03/30 03:44:16;;;;;;;29.27;17.92;;;;;;;8.01;100.00;98515.38;5084654;28;20671;-73
2024/03/30 03:46:42;;;;;;;28.70;17.20;;;;;;;8.02;100.00;98511.81;5090639;28;20043;-73
2024/03/30 03:49:10;;;;;;;31.98;18.77;;;;;;;8.01;100.00;98507.47;5082194;28;20154;-73
2024/03/30 03:51:39;;;;;;;30.48;18.38;;;;;;;7.89;100.00;98481.91;5093979;28;20040;-73
2024/03/30 03:54:06;;;;;;;30.67;18.42;;;;;;;7.99;100.00;98506.72;5101194;28;20055;-73
2024/03/30 03:56:32;;;;;;;29.50;17.83;;;;;;;7.71;100.00;98464.72;5088737;28;20070;-73
2024/03/30 03:58:59;;;;;;;28.38;17.17;;;;;;;7.95;100.00;98507.03;5087768;28;20646;-73
2024/03/30 04:01:25;;;;;;;31.52;18.83;;;;;;;7.75;100.00;98472.28;5101543;28;20067;-74
2024/03/30 04:03:53;;;;;;;31.10;18.23;;;;;;;7.92;100.00;98515.97;5079836;28;20047;-73
2024/03/30 04:06:19;;;;;;;30.60;18.60;;;;;;;7.89;100.00;98518.81;5103380;28;20476;-73
2024/03/30 04:08:50;;;;;;;30.35;18.85;;;;;;;7.89;100.00;98518.81;5069796;28;20075;-73
2024/03/30 04:11:16;;;;;;;28.63;17.63;;;;;;;7.86;100.00;98526.94;5100588;28;20047;-74
2024/03/30 04:13:43;;;;;;;29.38;17.55;;;;;;;7.75;100.00;98509.19;5086476;28;20332;-73
2024/03/30 04:16:09;;;;;;;30.23;18.40;;;;;;;7.81;100.00;98522.91;5108600;28;20074;-73
2024/03/30 04:18:36;;;;;;;29.40;17.60;;;;;;;7.79;100.00;98517.72;5086206;28;20044;-74
2024/03/30 04:21:03;;;;;;;27.35;16.75;;;;;;;7.78;100.00;98509.91;5085127;27;20040;-73
2024/03/30 04:23:32;;;;;;;27.25;17.02;;;;;;;7.77;100.00;98508.22;5082940;28;20036;-74
2024/03/30 04:26:04;;;;;;;31.48;18.10;;;;;;;7.74;100.00;98517.16;5088001;28;20474;-74
2024/03/30 04:28:32;;;;;;;28.42;17.70;;;;;;;7.73;100.00;98507.56;5087836;28;20468;-75
2024/03/30 04:31:01;;;;;;;30.35;17.65;;;;;;;7.72;100.00;98508.53;5087442;28;20097;-74
2024/03/30 04:33:28;;;;;;;32.83;17.85;;;;;;;7.50;100.00;98481.91;5087063;28;20069;-75
2024/03/30 04:35:57;;;;;;;29.70;17.73;;;;;;;7.39;100.00;98475.56;5088934;28;20118;-74
2024/03/30 04:38:24;;;;;;;32.78;18.73;;;;;;;7.72;100.00;98514.63;5089276;28;20063;-74
2024/03/30 04:40:59;;;;;;;31.33;18.15;;;;;;;7.68;100.00;98502.63;5087807;28;20138;-74
2024/03/30 04:43:28;;;;;;;28.38;17.65;;;;;;;7.73;100.00;98515.47;5103457;28;20067;-74
2024/03/30 04:45:55;;;;;;;31.20;18.17;;;;;;;7.72;100.00;98526.97;5074738;28;20476;-73
2024/03/30 04:48:25;;;;;;;33.03;18.92;;;;;;;7.62;100.00;98512.72;5106984;28;20055;-73
2024/03/30 04:50:51;;;;;;;30.00;18.70;;;;;;;7.70;100.00;98520.97;5106868;28;20093;-74
2024/03/30 04:53:19;;;;;;;33.78;18.73;;;;;;;7.67;100.00;98527.28;5084503;27;20071;-74
2024/03/30 04:55:52;;;;;;;32.25;19.30;;;;;;;7.69;100.00;98519.28;5070579;28;20074;-73
2024/03/30 04:58:21;;;;;;;27.95;18.30;;;;;;;7.68;100.00;98513.16;5086916;28;20028;-74
2024/03/30 05:00:49;;;;;;;26.17;17.83;;;;;;;7.40;100.00;98477.22;5082515;28;20155;-74
2024/03/30 05:03:16;;;;;;;27.73;17.83;;;;;;;7.46;100.00;98502.31;5101933;28;20405;-73
2024/03/30 05:05:43;;;;;;;27.10;17.92;;;;;;;7.49;100.00;98520.56;5087401;28;20130;-73
2024/03/30 05:08:11;;;;;;;28.48;18.30;;;;;;;7.46;100.00;98517.28;5070305;28;20044;-73
2024/03/30 05:10:37;;;;;;;27.10;17.92;;;;;;;7.20;100.00;98488.19;5091036;28;20114;-75
2024/03/30 05:13:07;;;;;;;26.83;16.33;;;;;;;7.40;100.00;98524.63;5101334;28;20047;-73
2024/03/30 05:15:36;;;;;;;31.05;17.60;;;;;;;7.34;100.00;98500.47;5066920;28;20132;-73
2024/03/30 05:18:08;;;;;;;29.60;18.75;;;;;;;7.26;100.00;98514.13;5104880;28;20059;-73
2024/03/30 05:20:50;;;;;;;24.00;16.67;;;;;;;7.32;100.00;98526.91;5105396;28;20035;-74
2024/03/30 05:23:19;;;;;;;21.58;15.93;;;;;;;6.90;100.00;98472.56;5072791;28;20059;-73
2024/03/30 05:25:46;;;;;;;23.95;16.55;;;;;;;7.08;100.00;98496.88;5103374;28;20110;-73
2024/03/30 05:28:14;;;;;;;21.80;15.73;;;;;;;7.28;100.00;98519.28;5083827;28;20079;-74
2024/03/30 05:30:41;;;;;;;24.10;16.83;;;;;;;7.15;100.00;98502.59;5069040;28;20126;-72
2024/03/30 05:33:11;;;;;;;25.85;16.85;;;;;;;7.33;100.00;98518.06;5087676;28;20043;-75
2024/03/30 05:35:38;;;;;;;23.80;15.67;;;;;;;7.39;100.00;98512.41;5098175;28;20067;-72
2024/03/30 05:38:04;;;;;;;23.88;15.95;;;;;;;7.27;100.00;98507.06;5106534;28;20036;-73
2024/03/30 05:40:33;;;;;;;23.75;16.83;;;;;;;7.51;100.00;98531.00;5092612;28;20059;-73
2024/03/30 05:42:59;;;;;;;25.23;16.70;;;;;;;7.56;100.00;98513.09;5072539;28;20096;-73
2024/03/30 05:45:27;;;;;;;25.65;16.50;;;;;;;7.65;100.00;98505.47;5086097;28;20060;-74
2024/03/30 05:47:53;;;;;;;24.58;16.88;;;;;;;7.74;100.00;98515.38;5072767;28;20592;-73
2024/03/30 05:50:22;;;;;;;28.75;18.48;;;;;;;7.81;100.00;98510.56;5103137;28;20637;-74
2024/03/30 05:52:48;;;;;;;26.83;17.92;;;;;;;7.78;100.00;98499.38;5088496;28;20651;-73
2024/03/30 05:55:17;;;;;;;26.52;17.10;;;;;;;7.93;100.00;98507.13;5088739;28;20036;-73
2024/03/30 05:57:43;;;;;;;28.98;18.27;;;;;;;7.93;100.00;98499.22;5103740;28;20122;-74
2024/03/30 06:00:13;;;;;;;27.30;18.00;;;;;;;8.07;100.00;98514.97;5090169;28;20085;-74
2024/03/30 06:02:41;;;;;;;31.73;19.15;;;;;;;8.16;100.00;98516.16;5105590;28;20036;-73
2024/03/30 06:05:09;;;;;;;29.20;18.30;;;;;;;8.10;100.00;98484.91;5068901;28;20518;-74
2024/03/30 06:07:36;;;;;;;27.00;17.40;;;;;;;8.29;100.00;98517.00;5089128;28;20114;-74
2024/03/30 06:10:07;;;;;;;25.38;16.70;;;;;;;8.31;100.00;98511.63;5089181;28;20067;-73
2024/03/30 06:12:33;;;;;;;23.52;16.52;;;;;;;8.34;100.00;98514.09;5101158;28;20377;-74
2024/03/30 06:15:01;;;;;;;24.20;15.98;;;;;;;8.24;100.00;98500.66;5100065;28;20565;-74
2024/03/30 06:17:29;;;;;;;24.10;15.17;;;;;;;8.42;100.00;98506.50;5107511;27;20155;-74
2024/03/30 06:19:56;;;;;;;21.95;15.30;;;;;;;8.48;100.00;98503.47;5096828;27;20484;-74
2024/03/30 06:22:26;;;;;;;21.95;14.07;;;;;;;8.43;100.00;98501.13;5093788;27;20468;-73
2024/03/30 06:24:54;;;;;;;23.85;14.38;;;;;;;8.55;100.00;98509.97;5089639;27;20036;-74
2024/03/30 06:27:20;;;;;;;22.33;14.40;;;;;;;8.16;100.00;98429.16;5097259;27;20066;-74
2024/03/30 06:29:47;;;;;;;19.10;13.40;;;;;;;8.66;100.00;98509.25;5098022;27;20115;-74
2024/03/30 06:32:14;;;;;;;21.75;13.60;;;;;;;8.69;100.00;98507.25;5112671;27;20054;-74
2024/03/30 06:34:41;;;;;;;20.90;13.32;;;;;;;8.74;100.00;98510.41;5079281;27;20311;-74
2024/03/30 06:37:07;;;;;;;20.00;13.23;;;;;;;8.42;100.00;98457.22;5093414;27;20070;-73
2024/03/30 06:45:04;;;;;;;14.38;11.45;;;;;;;8.92;100.00;98507.44;5107401;27;20054;-73
2024/03/30 06:47:31;;;;;;;15.68;11.60;;;;;;;8.96;100.00;98503.66;5096794;27;20072;-74
2024/03/30 06:49:58;;;;;;;16.73;11.88;;;;;;;8.98;100.00;98507.00;5078991;27;20122;-73
2024/03/30 06:52:25;;;;;;;15.30;11.23;;;;;;;9.05;100.00;98510.91;5094549;27;20134;-73
2024/03/30 06:54:52;;;;;;;15.98;11.77;;;;;;;9.09;100.00;98505.31;5088332;27;20047;-73
2024/03/30 06:57:19;;;;;;;16.48;11.13;;;;;;;9.17;100.00;98507.38;5093156;27;20040;-73
2024/03/30 06:59:46;;;;;;;17.70;10.98;;;;;;;9.24;100.00;98516.56;5110698;27;20042;-73
2024/03/30 07:02:12;;;;;;;16.73;10.45;;;;;;;9.27;100.00;98507.59;5078551;27;20451;-73
2024/03/30 07:04:39;;;;;;;15.82;9.88;;;;;;;9.28;100.00;98504.00;5104902;27;20039;-73
2024/03/30 07:07:05;;;;;;;17.15;10.02;;;;;;;9.14;100.00;98483.84;5072987;27;20039;-74
2024/03/30 07:09:32;;;;;;;17.27;8.35;;;;;;;9.37;100.00;98509.47;5110385;27;20104;-73
2024/03/30 07:11:58;;;;;;;15.48;8.93;;;;;;;9.44;100.00;98513.31;5075740;27;20043;-74
2024/03/30 07:14:27;;;;;;;14.02;8.20;;;;;;;9.54;100.00;98512.69;5095432;27;20059;-74
2024/03/30 07:16:55;;;;;;;13.82;8.35;;;;;;;9.65;100.00;98510.09;5099823;27;20058;-74
2024/03/30 07:19:22;;;;;;;17.48;9.43;;;;;;;9.71;100.00;98509.66;5085909;27;20050;-73
2024/03/30 07:21:48;;;;;;;15.02;8.43;;;;;;;9.85;100.00;98498.91;5101718;27;20538;-74
2024/03/30 07:24:17;;;;;;;11.55;7.43;;;;;;;9.60;100.00;98456.75;5086848;27;20043;-76
2024/03/30 07:26:44;;;;;;;14.48;7.63;;;;;;;9.94;100.00;98505.28;5077575;27;20086;-74
2024/03/30 07:29:10;;;;;;;13.52;7.70;;;;;;;9.92;100.00;98510.69;5103505;27;20116;-75
2024/03/30 07:31:40;;;;;;;12.57;7.75;;;;;;;9.90;100.00;98517.09;5094243;27;20031;-74
2024/03/30 07:34:07;;;;;;;12.82;7.20;;;;;;;9.89;100.00;98513.59;5090720;27;20046;-74
2024/03/30 07:36:33;;;;;;;16.55;6.95;;;;;;;9.88;100.00;98522.47;5104876;27;20126;-73
2024/03/30 07:39:00;;;;;;;14.20;6.80;;;;;;;9.77;100.00;98510.03;5111724;27;20039;-74
2024/03/30 07:41:27;;;;;;;13.90;6.40;;;;;;;9.87;100.00;98509.38;5111887;27;20108;-74
2024/03/30 07:43:55;;;;;;;13.05;6.95;;;;;;;9.86;100.00;98519.09;5102334;27;20821;-74
2024/03/30 07:46:21;;;;;;;13.82;6.50;;;;;;;9.82;100.00;98515.00;5089009;27;20054;-73
2024/03/30 07:48:49;;;;;;;11.13;5.82;;;;;;;9.81;100.00;98513.31;5092867;27;20039;-73
2024/03/30 07:51:15;;;;;;;13.60;7.03;;;;;;;9.81;100.00;98518.59;5091530;27;20074;-74
2024/03/30 07:53:43;;;;;;;13.48;6.65;;;;;;;9.41;100.00;98446.69;5074415;27;20096;-73
2024/03/30 07:56:09;;;;;;;11.80;6.40;;;;;;;9.90;100.00;98510.00;5089279;27;20077;-74
2024/03/30 07:58:36;;;;;;;14.05;7.25;;;;;;;9.95;100.00;98518.41;5112589;27;20039;-74
2024/03/30 08:01:05;;;;;;;18.02;7.72;;;;;;;10.03;100.00;98517.84;5102069;27;20074;-75
2024/03/30 08:03:32;;;;;;;11.68;7.20;;;;;;;10.07;100.00;98519.31;5075606;27;20069;-75
2024/03/30 08:05:59;;;;;;;12.90;6.50;;;;;;;9.89;100.00;98473.09;5091509;27;20039;-74
2024/03/30 08:08:27;;;;;;;13.68;6.85;;;;;;;10.19;100.00;98518.44;5094782;27;20122;-74
2024/03/30 08:10:53;;;;;;;16.52;6.25;;;;;;;10.18;100.00;98519.34;5075758;27;20038;-74
2024/03/30 08:13:20;;;;;;;20.48;6.22;;;;;;;10.17;100.00;98507.94;5089067;27;20253;-73
2024/03/30 08:15:47;;;;;;;13.05;7.00;;;;;;;10.21;100.00;98503.28;5102069;27;20058;-74
2024/03/30 08:18:14;;;;;;;13.23;6.15;;;;;;;10.21;100.00;98503.28;5108522;27;20142;-74
2024/03/30 08:20:42;;;;;;;20.73;6.68;;;;;;;10.24;100.00;98494.25;5092403;27;20059;-74
2024/03/30 08:23:10;;;;;;;12.07;5.88;;;;;;;10.23;100.00;98514.56;5099234;27;20531;-74
2024/03/30 08:25:35;;;;;;;15.00;5.78;;;;;;;10.12;100.00;98480.97;5085558;27;20524;-74
2024/03/30 08:28:04;;;;;;;13.68;5.65;;;;;;;10.06;100.00;98484.09;5111006;27;20046;-75
2024/03/30 08:30:30;;;;;;;15.73;5.50;;;;;;;9.75;100.00;98447.69;5104098;27;20070;-73
2024/03/30 08:32:58;;;;;;;14.18;6.30;;;;;;;10.13;100.00;98524.13;5092692;27;20534;-74
2024/03/30 08:35:26;;;;;;;13.07;6.60;;;;;;;10.14;100.00;98518.72;5078301;27;20071;-74
2024/03/30 08:37:53;;;;;;;16.00;6.38;;;;;;;10.11;100.00;98511.00;5076360;27;20100;-73
2024/03/30 08:40:20;;;;;;;13.35;6.78;;;;;;;10.23;100.00;98519.03;5094143;27;20073;-74
2024/03/30 08:42:47;;;;;;;14.82;6.95;;;;;;;10.16;100.00;98497.47;5089507;28;20066;-74
2024/03/30 08:45:17;;;;;;;14.38;7.15;;;;;;;10.31;100.00;98514.00;5092717;27;20129;-74
2024/03/30 08:47:46;;;;;;;11.50;6.85;;;;;;;10.37;100.00;98516.19;5093123;27;20070;-75
2024/03/30 08:50:13;;;;;;;19.23;7.05;;;;;;;10.40;100.00;98513.28;5090732;27;20075;-74
2024/03/30 08:52:40;;;;;;;15.38;6.57;;;;;;;10.49;100.00;98520.56;5108219;27;20510;-73
2024/03/30 08:55:06;;;;;;;14.27;6.55;;;;;;;10.59;100.00;98516.22;5070464;27;20127;-75
2024/03/30 08:57:34;;;;;;;12.57;6.10;;;;;;;10.68;100.00;98509.41;5112296;27;20058;-74
2024/03/30 09:00:08;;;;;;;12.30;6.00;;;;;;;10.62;100.00;98483.41;5094610;27;20039;-74
2024/03/30 09:02:36;;;;;;;15.02;5.90;;;;;;;10.88;100.00;98511.31;5108315;27;20481;-74
2024/03/30 09:05:05;;;;;;;17.27;6.43;;;;;;;10.91;100.00;98489.91;5087711;28;20493;-74
2024/03/30 09:07:32;;;;;;;12.18;5.82;;;;;;;11.05;100.00;98502.91;5107687;27;20098;-74
2024/03/30 09:09:58;;;;;;;17.45;6.07;;;;;;;11.02;100.00;98483.78;5090763;28;20520;-73
2024/03/30 09:12:25;;;;;;;14.43;5.55;;;;;;;11.16;100.00;98505.56;5076811;27;20397;-74
2024/03/30 09:14:53;;;;;;;17.05;5.95;;;;;;;11.17;100.00;98514.34;5107576;27;20051;-74
2024/03/30 09:17:20;;;;;;;10.60;5.10;;;;;;;11.19;100.00;98505.28;5109040;27;22480;-74
2024/03/30 09:19:48;;;;;;;14.27;5.40;;;;;;;11.29;100.00;98507.22;5094526;27;20126;-74
2024/03/30 09:22:15;;;;;;;17.08;6.18;;;;;;;11.37;100.00;98510.09;5074046;27;20436;-74
2024/03/30 09:24:43;;;;;;;16.38;5.50;;;;;;;11.40;100.00;98513.34;5090216;27;20590;-74
2024/03/30 09:27:10;;;;;;;15.55;5.10;;;;;;;10.76;100.00;98407.22;5106828;27;20066;-74
2024/03/30 09:29:38;;;;;;;14.18;4.72;;;;;;;11.54;100.00;98510.44;5090556;27;20088;-75
2024/03/30 09:32:07;;;;;;;14.80;4.47;;;;;;;11.62;100.00;98515.13;5108588;27;20055;-77
2024/03/30 09:34:34;;;;;;;13.27;5.32;;;;;;;11.71;100.00;98516.19;5076489;27;20043;-75
2024/03/30 09:37:02;;;;;;;14.25;5.43;;;;;;;11.79;100.00;98524.41;5090003;27;20129;-75
2024/03/30 09:39:28;;;;;;;17.45;5.00;;;;;;;11.85;100.00;98521.22;5108644;27;20062;-76
2024/03/30 09:41:55;;;;;;;16.60;5.32;;;;;;;11.96;100.00;98521.22;5074721;28;20039;-74
2024/03/30 09:44:21;;;;;;;14.65;5.10;;;;;;;12.03;100.00;98511.75;5069288;28;20539;-74
2024/03/30 09:46:52;;;;;;;17.30;5.15;;;;;;;12.11;100.00;98509.31;5090427;27;20043;-75
2024/03/30 09:49:23;;;;;;;18.40;4.80;;;;;;;12.19;100.00;98500.72;5107509;27;20048;-73
2024/03/30 09:51:52;;;;;;;15.50;4.60;;;;;;;12.17;100.00;98507.97;5102745;28;20051;-73
2024/03/30 09:54:19;;;;;;;14.48;4.43;;;;;;;12.17;100.00;98498.19;5092881;28;20130;-75
2024/03/30 09:56:48;;;;;;;14.05;4.20;;;;;;;12.20;100.00;98492.63;5086352;28;20697;-75
2024/03/30 09:59:17;;;;;;;16.55;4.80;;;;;;;12.40;100.00;98498.91;5087886;28;20039;-74
2024/03/30 10:01:45;;;;;;;15.00;4.50;;;;;;;12.20;100.00;98450.16;5103673;28;20183;-75
2024/03/30 10:04:11;;;;;;;18.42;5.05;;;;;;;12.52;100.00;98497.03;5092692;28;20120;-75
2024/03/30 10:06:46;;;;;;;19.70;4.95;;;;;;;12.30;100.00;98460.84;5088567;28;20059;-74
2024/03/30 10:09:18;;;;;;;15.73;4.65;;;;;;;12.21;100.00;98438.59;5074453;28;20130;-74
2024/03/30 10:11:46;;;;;;;19.60;5.72;;;;;;;12.78;100.00;98506.25;5094612;28;20062;-76
2024/03/30 10:14:22;;;;;;;17.92;5.13;;;;;;;12.90;100.00;98494.59;5083091;28;20044;-75
2024/03/30 10:16:50;;;;;;;15.82;4.90;;;;;;;12.92;100.00;98495.28;5052792;28;20039;-75
2024/03/30 10:19:19;;;;;;;17.63;4.53;;;;;;;13.12;100.00;98501.53;5103099;27;20564;-73
2024/03/30 10:21:48;;;;;;;12.52;4.13;;;;;;;12.91;100.00;98415.72;5088806;28;20712;-74
2024/03/30 10:24:15;;;;;;;18.45;4.18;;;;;;;13.64;100.00;98486.31;5106711;28;20116;-74
2024/03/30 10:26:43;;;;;;;24.05;4.90;;;;;;;13.76;100.00;98471.06;5092404;28;20039;-75
2024/03/30 10:29:09;;;;;;;22.45;4.57;;;;;;;13.86;100.00;98475.41;5089403;28;20126;-75
2024/03/30 10:31:38;;;;;;;15.65;4.35;;;;;;;13.70;100.00;98462.66;5087377;28;20413;-74
2024/03/30 10:34:05;;;;;;;16.90;4.13;;;;;;;13.78;100.00;98474.44;5108490;28;20043;-75
2024/03/30 10:36:31;;;;;;;25.23;3.97;;;;;;;13.74;100.00;98481.00;5073229;28;20560;-74
2024/03/30 10:38:59;;;;;;;15.20;4.03;;;;;;;13.84;100.00;98497.84;5108670;28;20039;-75
2024/03/30 10:41:27;;;;;;;13.90;3.72;;;;;;;13.94;100.00;98504.00;5088940;28;20059;-75
2024/03/30 10:43:52;;;;;;;16.98;4.40;;;;;;;14.01;100.00;98515.75;5108581;28;20073;-74
2024/03/30 10:46:19;;;;;;;21.55;3.28;;;;;;;14.07;100.00;98525.84;5100464;28;20035;-74
2024/03/30 10:48:45;;;;;;;27.58;4.95;;;;;;;14.27;100.00;98526.69;5071910;28;20063;-74
2024/03/30 10:51:13;;;;;;;18.35;3.85;;;;;;;14.53;100.00;98521.66;5101529;28;20131;-75
2024/03/30 10:53:39;;;;;;;21.77;3.78;;;;;;;14.67;100.00;98516.72;5076526;28;20066;-74
2024/03/30 10:56:08;;;;;;;22.67;4.53;;;;;;;14.84;100.00;98528.47;5072112;28;20039;-76
2024/03/30 10:58:36;;;;;;;19.60;4.05;;;;;;;14.94;100.00;98521.31;5108268;27;20039;-74
2024/03/30 11:01:04;;;;;;;17.30;4.47;;;;;;;14.50;100.00;98437.56;5075258;27;20048;-74
2024/03/30 11:03:31;;;;;;;26.02;4.15;;;;;;;15.04;100.00;98522.09;5102146;28;20417;-75
2024/03/30 11:05:59;;;;;;;28.33;4.45;;;;;;;15.06;100.00;98511.28;5108123;27;20096;-74
2024/03/30 11:08:26;;;;;;;20.70;3.90;;;;;;;14.88;100.00;98511.22;5113214;27;20056;-74
2024/03/30 11:10:57;;;;;;;21.95;4.20;;;;;;;14.84;100.00;98501.81;5114403;27;20039;-73
2024/03/30 11:13:25;;;;;;;17.50;3.70;;;;;;;14.78;100.00;98504.22;5113294;27;20054;-74
2024/03/30 11:15:57;;;;;;;17.92;4.75;;;;;;;14.78;100.00;98522.88;5076367;27;20523;-75
2024/03/30 11:18:27;;;;;;;18.83;4.38;;;;;;;14.71;100.00;98522.59;5091851;27;20115;-75
2024/03/30 11:21:02;;;;;;;26.90;4.80;;;;;;;14.66;100.00;98527.50;5112107;27;20058;-74
2024/03/30 11:23:40;;;;;;;18.80;4.32;;;;;;;14.18;100.00;98474.28;5130861;27;20453;-74